createdAt,value
2023-05-09T00:01:29.903Z,12.91
2023-05-09T00:03:59.112Z,12.83
2023-05-09T00:06:27.623Z,12.85
2023-05-09T00:08:55.755Z,12.81
2023-05-09T00:11:22.794Z,12.87
2023-05-09T00:13:50.868Z,12.76
2023-05-09T00:16:18.539Z,12.92
2023-05-09T00:18:45.595Z,13.02
2023-05-09T00:21:12.746Z,12.92
2023-05-09T00:23:39.878Z,12.72
2023-05-09T00:26:06.948Z,12.82
2023-05-09T00:28:34.074Z,12.77
2023-05-09T00:31:01.114Z,12.71
2023-05-09T00:33:28.173Z,12.67
2023-05-09T00:35:55.423Z,12.74
2023-05-09T00:38:23.460Z,12.63
2023-05-09T00:40:50.545Z,12.68
2023-05-09T00:43:17.762Z,12.81
2023-05-09T00:45:45.695Z,12.78
2023-05-09T00:48:13.612Z,12.86
2023-05-09T00:50:41.179Z,12.90
2023-05-09T00:53:08.991Z,12.66
2023-05-09T00:55:36.116Z,12.91
2023-05-09T00:58:04.043Z,12.95
2023-05-09T01:00:31.351Z,12.94
2023-05-09T01:02:58.631Z,13.10
2023-05-09T01:05:37.484Z,13.15
2023-05-09T01:08:31.431Z,13.18
2023-05-09T01:11:06.406Z,13.11
2023-05-09T01:14:06.183Z,13.09
2023-05-09T01:16:52.076Z,13.01
2023-05-09T01:20:10.619Z,13.00
2023-05-09T01:22:43.011Z,12.98
2023-05-09T01:25:13.336Z,12.91
2023-05-09T01:27:53.500Z,12.91
2023-05-09T01:30:20.814Z,12.85
2023-05-09T01:32:51.212Z,12.83
2023-05-09T01:35:22.457Z,12.79
2023-05-09T01:37:50.916Z,12.74
2023-05-09T01:40:21.359Z,12.80
2023-05-09T01:42:57.660Z,12.66
2023-05-09T01:45:26.915Z,12.73
2023-05-09T01:47:54.246Z,12.89
2023-05-09T01:50:22.945Z,12.80
2023-05-09T01:52:53.517Z,13.00
2023-05-09T01:55:22.689Z,13.00
2023-05-09T01:57:50.768Z,12.93
2023-05-09T02:00:19.328Z,12.87
2023-05-09T02:02:47.006Z,12.86
2023-05-09T02:05:17.715Z,12.77
2023-05-09T02:07:47.415Z,12.82
2023-05-09T02:10:15.730Z,12.79
2023-05-09T02:12:42.848Z,12.83
2023-05-09T02:15:10.205Z,12.86
2023-05-09T02:17:42.188Z,12.86
2023-05-09T02:20:13.313Z,12.91
2023-05-09T02:22:42.316Z,12.88
2023-05-09T02:25:11.856Z,12.93
2023-05-09T02:27:40.407Z,12.91
2023-05-09T02:30:12.739Z,12.86
2023-05-09T02:32:41.554Z,12.89
2023-05-09T02:35:10.311Z,12.95
2023-05-09T02:37:38.116Z,12.76
2023-05-09T02:40:08.973Z,13.15
2023-05-09T02:42:36.361Z,13.15
2023-05-09T02:45:03.625Z,13.15
2023-05-09T02:47:31.296Z,13.24
2023-05-09T02:49:58.956Z,13.28
2023-05-09T02:52:26.158Z,13.35
2023-05-09T02:54:53.196Z,13.35
2023-05-09T02:57:21.117Z,13.04
2023-05-09T02:59:48.129Z,13.36
2023-05-09T03:02:15.603Z,13.20
2023-05-09T03:04:43.349Z,13.28
2023-05-09T03:07:10.392Z,13.29
2023-05-09T03:09:39.288Z,13.30
2023-05-09T03:12:08.150Z,13.10
2023-05-09T03:14:36.443Z,13.25
2023-05-09T03:17:03.490Z,13.24
2023-05-09T03:19:34.791Z,13.22
2023-05-09T03:22:01.988Z,13.15
2023-05-09T03:24:31.851Z,13.14
2023-05-09T03:26:58.924Z,13.13
2023-05-09T03:29:26.056Z,12.90
2023-05-09T03:31:54.446Z,13.07
2023-05-09T03:34:22.044Z,13.08
2023-05-09T03:36:49.173Z,13.12
2023-05-09T03:39:16.436Z,13.18
2023-05-09T03:41:46.603Z,13.24
2023-05-09T03:44:13.964Z,13.26
2023-05-09T03:46:41.045Z,13.24
2023-05-09T03:49:08.520Z,13.31
2023-05-09T03:51:36.980Z,13.39
2023-05-09T03:54:08.131Z,13.42
2023-05-09T03:56:35.901Z,13.44
2023-05-09T03:59:03.048Z,13.44
2023-05-09T04:01:30.878Z,13.61
2023-05-09T04:04:00.227Z,13.65
2023-05-09T04:06:29.988Z,13.72
2023-05-09T04:08:58.218Z,13.51
2023-05-09T04:11:25.578Z,13.79
2023-05-09T04:13:52.630Z,13.83
2023-05-09T04:16:27.342Z,13.87
2023-05-09T04:18:54.508Z,13.96
2023-05-09T04:21:21.546Z,14.04
2023-05-09T04:23:51.400Z,14.12
2023-05-09T04:26:22.926Z,14.16
2023-05-09T04:28:52.890Z,14.17
2023-05-09T04:31:20.279Z,14.05
2023-05-09T04:33:51.377Z,14.07
2023-05-09T04:36:18.412Z,14.06
2023-05-09T04:38:46.418Z,13.94
2023-05-09T04:41:17.972Z,13.78
2023-05-09T04:43:44.968Z,13.89
2023-05-09T04:46:12.323Z,13.97
2023-05-09T04:48:39.485Z,13.85
2023-05-09T04:51:06.518Z,14.12
2023-05-09T04:53:34.269Z,14.05
2023-05-09T04:56:01.367Z,14.02
2023-05-09T04:58:29.466Z,14.10
2023-05-09T05:00:57.181Z,14.14
2023-05-09T05:03:24.186Z,14.15
2023-05-09T05:05:51.389Z,14.17
2023-05-09T05:08:18.502Z,14.12
2023-05-09T05:10:46.023Z,14.03
2023-05-09T05:13:15.959Z,14.36
2023-05-09T05:15:46.099Z,14.36
2023-05-09T05:18:14.037Z,14.47
2023-05-09T05:20:42.058Z,14.65
2023-05-09T05:23:09.446Z,14.62
2023-05-09T05:25:36.594Z,14.68
2023-05-09T05:28:03.802Z,14.86
2023-05-09T05:30:33.453Z,14.89
2023-05-09T05:33:01.772Z,14.99
2023-05-09T05:35:29.260Z,15.08
2023-05-09T05:37:57.274Z,15.10
2023-05-09T05:40:24.479Z,15.24
2023-05-09T05:42:54.255Z,15.04
2023-05-09T05:45:21.493Z,15.25
2023-05-09T05:47:52.865Z,15.28
2023-05-09T05:50:20.812Z,15.24
2023-05-09T05:52:48.322Z,15.40
2023-05-09T05:55:17.910Z,15.34
2023-05-09T05:57:45.719Z,15.50
2023-05-09T06:00:15.465Z,15.62
2023-05-09T06:02:55.162Z,15.53
2023-05-09T06:05:28.031Z,15.50
2023-05-09T06:07:55.185Z,15.46
2023-05-09T06:10:22.373Z,15.44
2023-05-09T06:12:49.520Z,15.36
2023-05-09T06:15:16.750Z,15.80
2023-05-09T06:17:46.996Z,15.69
2023-05-09T06:20:14.046Z,15.84
2023-05-09T06:22:41.071Z,15.92
2023-05-09T06:25:11.199Z,15.99
2023-05-09T06:27:38.598Z,16.18
2023-05-09T06:30:23.929Z,16.07
2023-05-09T06:32:52.341Z,15.93
2023-05-09T06:35:19.494Z,15.97
2023-05-09T06:37:48.439Z,15.98
2023-05-09T06:40:16.713Z,16.00
2023-05-09T06:42:44.612Z,16.03
2023-05-09T06:45:11.916Z,15.82
2023-05-09T06:47:39.075Z,16.15
2023-05-09T06:50:06.793Z,16.01
2023-05-09T06:52:33.910Z,16.09
2023-05-09T06:55:00.988Z,16.18
2023-05-09T06:57:28.155Z,16.03
2023-05-09T06:59:55.347Z,16.02
2023-05-09T07:02:22.409Z,15.90
2023-05-09T07:04:49.598Z,15.92
2023-05-09T07:07:17.237Z,15.82
2023-05-09T07:09:44.261Z,15.79
2023-05-09T07:12:11.282Z,15.89
2023-05-09T07:14:38.319Z,15.94
2023-05-09T07:17:21.143Z,16.10
2023-05-09T07:19:49.716Z,16.08
2023-05-09T07:22:16.887Z,16.16
2023-05-09T07:24:44.484Z,16.25
2023-05-09T07:27:11.577Z,16.37
2023-05-09T07:29:38.631Z,16.17
2023-05-09T07:32:06.171Z,16.38
2023-05-09T07:34:33.302Z,16.47
2023-05-09T07:37:00.310Z,16.46
2023-05-09T07:39:27.298Z,16.15
2023-05-09T07:41:54.328Z,16.53
2023-05-09T07:44:21.507Z,16.74
2023-05-09T07:46:48.552Z,16.87
2023-05-09T07:49:15.667Z,17.00
2023-05-09T07:51:42.765Z,17.13
2023-05-09T07:54:10.162Z,17.18
2023-05-09T07:56:37.283Z,17.16
2023-05-09T07:59:04.465Z,17.09
2023-05-09T08:01:31.677Z,17.11
2023-05-09T08:03:58.874Z,17.17
2023-05-09T08:06:26.437Z,17.02
2023-05-09T08:08:53.423Z,17.17
2023-05-09T08:11:20.502Z,16.95
2023-05-09T08:13:48.120Z,17.23
2023-05-09T08:16:17.296Z,17.27
2023-05-09T08:18:45.038Z,17.40
2023-05-09T08:21:12.135Z,17.32
2023-05-09T08:23:40.527Z,17.29
2023-05-09T08:26:07.619Z,17.52
2023-05-09T08:28:34.668Z,17.63
2023-05-09T08:31:02.221Z,17.56
2023-05-09T08:33:29.252Z,17.46
2023-05-09T08:35:56.388Z,17.49
2023-05-09T08:38:24.360Z,17.43
2023-05-09T08:40:51.687Z,17.27
2023-05-09T08:43:20.156Z,17.22
2023-05-09T08:45:51.918Z,17.45
2023-05-09T08:48:19.354Z,17.59
2023-05-09T08:50:46.942Z,18.03
2023-05-09T08:53:14.587Z,18.33
2023-05-09T08:55:41.720Z,18.93
2023-05-09T08:58:13.495Z,18.71
2023-05-09T09:00:41.585Z,18.70
2023-05-09T09:03:08.808Z,18.81
2023-05-09T09:05:41.848Z,18.74
2023-05-09T09:08:10.841Z,18.88
2023-05-09T09:10:47.081Z,19.09
2023-05-09T09:13:15.480Z,18.92
2023-05-09T09:15:45.151Z,18.67
2023-05-09T09:18:18.074Z,18.27
2023-05-09T09:20:48.509Z,18.55
2023-05-09T09:23:20.216Z,18.51
2023-05-09T09:25:48.335Z,18.38
2023-05-09T09:28:15.582Z,18.83
2023-05-09T09:30:48.894Z,19.13
2023-05-09T09:33:22.688Z,19.55
2023-05-09T09:35:51.557Z,19.77
2023-05-09T09:38:20.052Z,19.89
2023-05-09T09:40:56.840Z,19.93
2023-05-09T09:43:31.417Z,19.54
2023-05-09T09:46:03.100Z,19.62
2023-05-09T09:48:33.719Z,19.55
2023-05-09T09:51:11.357Z,19.58
2023-05-09T09:53:43.228Z,19.57
2023-05-09T09:56:10.993Z,19.48
2023-05-09T09:58:38.148Z,19.59
2023-05-09T10:01:09.949Z,19.69
2023-05-09T10:03:39.153Z,19.68
2023-05-09T10:06:13.236Z,20.07
2023-05-09T10:08:41.068Z,20.38
2023-05-09T10:11:09.442Z,20.58
2023-05-09T10:13:38.364Z,20.46
2023-05-09T10:16:06.079Z,20.31
2023-05-09T10:18:34.355Z,20.29
2023-05-09T10:21:03.641Z,19.55
2023-05-09T10:23:32.718Z,19.45
2023-05-09T10:26:12.354Z,19.14
2023-05-09T10:28:41.892Z,19.25
2023-05-09T10:31:27.838Z,19.77
2023-05-09T10:33:58.703Z,19.98
2023-05-09T10:36:26.331Z,20.04
2023-05-09T10:38:54.730Z,19.91
2023-05-09T10:41:23.543Z,19.70
2023-05-09T10:43:51.006Z,19.69
2023-05-09T10:46:18.605Z,19.35
2023-05-09T10:48:47.845Z,19.47
2023-05-09T10:51:16.261Z,19.41
2023-05-09T10:53:45.889Z,19.10
2023-05-09T10:56:33.273Z,18.78
2023-05-09T10:59:00.651Z,17.98
2023-05-09T11:01:34.591Z,17.88
2023-05-09T11:04:08.897Z,17.82
2023-05-09T11:06:42.158Z,17.67
2023-05-09T11:09:28.782Z,17.64
2023-05-09T11:12:01.705Z,17.70
2023-05-09T11:14:33.246Z,17.77
2023-05-09T11:17:02.890Z,18.51
2023-05-09T11:19:42.925Z,18.87
2023-05-09T11:22:27.781Z,19.23
2023-05-09T11:25:01.350Z,19.32
2023-05-09T11:27:29.215Z,19.31
2023-05-09T11:30:04.481Z,19.22
2023-05-09T11:32:32.845Z,19.56
2023-05-09T11:35:12.407Z,19.52
2023-05-09T11:37:45.455Z,19.50
2023-05-09T11:40:14.718Z,19.23
2023-05-09T11:42:44.774Z,19.23
2023-05-09T11:45:13.729Z,18.90
2023-05-09T11:47:41.523Z,19.16
2023-05-09T11:50:10.209Z,19.10
2023-05-09T11:52:38.387Z,18.88
2023-05-09T11:55:12.688Z,18.82
2023-05-09T11:57:42.057Z,18.89
2023-05-09T12:00:10.441Z,18.79
2023-05-09T12:02:38.304Z,18.86
2023-05-09T12:05:10.879Z,18.74
2023-05-09T12:07:39.424Z,18.85
2023-05-09T12:10:08.635Z,18.83
2023-05-09T12:12:37.243Z,19.10
2023-05-09T12:15:07.839Z,18.71
2023-05-09T12:17:35.679Z,18.80
2023-05-09T12:20:06.805Z,18.95
2023-05-09T12:22:34.777Z,19.03
2023-05-09T12:25:07.182Z,19.53
2023-05-09T12:27:38.685Z,19.47
2023-05-09T12:30:15.909Z,19.40
2023-05-09T12:32:43.588Z,19.22
2023-05-09T12:35:11.157Z,19.10
2023-05-09T12:37:39.056Z,18.72
2023-05-09T12:40:12.227Z,18.36
2023-05-09T12:42:39.697Z,18.56
2023-05-09T12:45:10.847Z,18.70
2023-05-09T12:47:38.951Z,18.96
2023-05-09T12:50:07.317Z,19.26
2023-05-09T12:52:38.122Z,19.27
2023-05-09T12:55:13.320Z,19.13
2023-05-09T12:57:41.836Z,19.43
2023-05-09T13:00:10.220Z,19.81
2023-05-09T13:02:39.839Z,19.96
2023-05-09T13:05:06.976Z,20.08
2023-05-09T13:07:40.768Z,20.69
2023-05-09T13:10:21.184Z,20.75
2023-05-09T13:12:49.165Z,20.93
2023-05-09T13:15:17.489Z,20.81
2023-05-09T13:17:44.779Z,21.12
2023-05-09T13:20:11.964Z,21.35
2023-05-09T13:22:39.223Z,21.21
2023-05-09T13:25:06.968Z,21.49
2023-05-09T13:27:34.328Z,21.33
2023-05-09T13:30:01.508Z,21.79
2023-05-09T13:32:28.577Z,21.82
2023-05-09T13:34:55.740Z,21.64
2023-05-09T13:37:22.847Z,21.81
2023-05-09T13:39:49.905Z,22.11
2023-05-09T13:42:19.091Z,21.76
2023-05-09T13:44:46.338Z,21.44
2023-05-09T13:47:13.375Z,21.17
2023-05-09T13:49:40.438Z,20.97
2023-05-09T13:52:08.192Z,21.46
2023-05-09T13:54:35.356Z,21.40
2023-05-09T13:57:05.395Z,21.40
2023-05-09T13:59:32.500Z,21.59
2023-05-09T14:02:00.529Z,21.20
2023-05-09T14:04:28.822Z,21.14
2023-05-09T14:06:56.179Z,20.62
2023-05-09T14:09:23.331Z,20.26
2023-05-09T14:11:51.569Z,20.19
2023-05-09T14:14:19.823Z,19.83
2023-05-09T14:16:47.804Z,19.77
2023-05-09T14:19:15.374Z,19.86
2023-05-09T14:21:48.700Z,19.75
2023-05-09T14:24:16.491Z,19.66
2023-05-09T14:26:44.086Z,19.20
2023-05-09T14:29:11.307Z,19.36
2023-05-09T14:31:38.430Z,19.18
2023-05-09T14:34:06.154Z,18.90
2023-05-09T14:36:33.192Z,18.63
2023-05-09T14:39:00.259Z,18.60
2023-05-09T14:41:27.339Z,18.47
2023-05-09T14:43:54.445Z,18.47
2023-05-09T14:46:21.545Z,18.31
2023-05-09T14:48:48.543Z,18.25
2023-05-09T14:51:15.529Z,18.37
2023-05-09T14:53:42.589Z,18.09
2023-05-09T14:56:11.458Z,18.26
2023-05-09T14:58:38.680Z,18.20
2023-05-09T15:01:05.745Z,18.15
2023-05-09T15:03:32.968Z,18.12
2023-05-09T15:06:00.150Z,18.19
2023-05-09T15:08:27.255Z,18.11
2023-05-09T15:10:54.313Z,18.15
2023-05-09T15:13:21.620Z,18.11
2023-05-09T15:15:48.895Z,17.92
2023-05-09T15:18:17.012Z,18.14
2023-05-09T15:20:44.333Z,17.95
2023-05-09T15:23:12.982Z,17.95
2023-05-09T15:25:42.413Z,17.78
2023-05-09T15:28:09.417Z,17.82
2023-05-09T15:30:38.734Z,17.79
2023-05-09T15:33:06.242Z,17.60
2023-05-09T15:35:33.396Z,17.65
2023-05-09T15:38:00.501Z,17.46
2023-05-09T15:40:28.162Z,17.78
2023-05-09T15:42:55.191Z,17.87
2023-05-09T15:45:22.405Z,17.92
2023-05-09T15:47:49.485Z,17.88
2023-05-09T15:50:16.921Z,17.75
2023-05-09T15:52:44.093Z,17.51
2023-05-09T15:55:12.776Z,17.75
2023-05-09T15:57:39.874Z,17.73
2023-05-09T16:00:07.434Z,17.66
2023-05-09T16:02:39.596Z,17.35
2023-05-09T16:05:06.913Z,17.45
2023-05-09T16:07:35.677Z,17.33
2023-05-09T16:10:03.349Z,17.48
2023-05-09T16:12:32.630Z,17.46
2023-05-09T16:15:00.087Z,17.19
2023-05-09T16:17:27.468Z,17.23
2023-05-09T16:19:55.606Z,17.41
2023-05-09T16:22:22.653Z,17.20
2023-05-09T16:24:49.678Z,16.98
2023-05-09T16:27:17.403Z,17.19
2023-05-09T16:29:44.473Z,17.08
2023-05-09T16:32:11.569Z,17.15
2023-05-09T16:34:38.745Z,16.86
2023-05-09T16:37:06.121Z,17.06
2023-05-09T16:39:33.100Z,16.88
2023-05-09T16:42:00.149Z,17.05
2023-05-09T16:44:27.401Z,17.05
2023-05-09T16:46:54.387Z,17.04
2023-05-09T16:49:21.348Z,16.90
2023-05-09T16:51:48.300Z,17.07
2023-05-09T16:54:15.481Z,17.06
2023-05-09T16:56:42.540Z,16.92
2023-05-09T16:59:09.557Z,16.82
2023-05-09T17:01:36.615Z,16.82
2023-05-09T17:04:06.550Z,16.78
2023-05-09T17:06:34.142Z,16.75
2023-05-09T17:09:01.201Z,16.73
2023-05-09T17:11:29.021Z,16.47
2023-05-09T17:13:56.124Z,16.50
2023-05-09T17:16:23.206Z,16.52
2023-05-09T17:18:51.913Z,16.35
2023-05-09T17:21:20.147Z,16.63
2023-05-09T17:23:47.296Z,16.41
2023-05-09T17:26:14.512Z,16.38
2023-05-09T17:28:41.479Z,16.23
2023-05-09T17:31:08.544Z,16.35
2023-05-09T17:33:35.751Z,16.13
2023-05-09T17:36:02.735Z,16.21
2023-05-09T17:38:30.105Z,16.19
2023-05-09T17:40:57.366Z,16.10
2023-05-09T17:43:24.637Z,15.92
2023-05-09T17:45:52.323Z,16.15
2023-05-09T17:48:19.773Z,16.28
2023-05-09T17:50:46.801Z,16.26
2023-05-09T17:53:13.884Z,16.23
2023-05-09T17:55:42.249Z,16.04
2023-05-09T17:58:09.385Z,16.07
2023-05-09T18:00:36.537Z,15.75
2023-05-09T18:03:04.115Z,15.81
2023-05-09T18:05:31.253Z,15.87
2023-05-09T18:08:00.740Z,15.95
2023-05-09T18:10:28.722Z,15.60
2023-05-09T18:12:55.972Z,15.66
2023-05-09T18:15:24.732Z,15.83
2023-05-09T18:17:53.688Z,15.81
2023-05-09T18:20:21.003Z,15.86
2023-05-09T18:22:48.217Z,15.62
2023-05-09T18:25:15.401Z,15.70
2023-05-09T18:27:42.493Z,15.69
2023-05-09T18:30:09.875Z,15.49
2023-05-09T18:32:36.882Z,15.58
2023-05-09T18:35:04.285Z,15.51
2023-05-09T18:37:31.267Z,15.58
2023-05-09T18:39:58.274Z,15.46
2023-05-09T18:42:25.294Z,15.24
2023-05-09T18:44:52.454Z,15.09
2023-05-09T18:47:19.597Z,15.15
2023-05-09T18:49:47.464Z,15.26
2023-05-09T18:52:15.116Z,15.32
2023-05-09T18:54:42.188Z,15.35
2023-05-09T18:57:09.815Z,15.32
2023-05-09T18:59:36.904Z,15.26
2023-05-09T19:02:03.918Z,15.23
2023-05-09T19:04:31.066Z,15.32
2023-05-09T19:06:59.337Z,15.27
2023-05-09T19:09:26.706Z,15.12
2023-05-09T19:11:53.962Z,15.14
2023-05-09T19:14:20.962Z,14.79
2023-05-09T19:16:48.470Z,14.91
2023-05-09T19:19:15.676Z,15.09
2023-05-09T19:21:42.962Z,14.96
2023-05-09T19:24:10.114Z,14.89
2023-05-09T19:26:37.204Z,15.03
2023-05-09T19:29:07.842Z,15.10
2023-05-09T19:31:37.375Z,15.08
2023-05-09T19:34:04.377Z,14.91
2023-05-09T19:36:31.518Z,14.89
2023-05-09T19:38:58.582Z,14.97
2023-05-09T19:41:25.944Z,14.92
2023-05-09T19:43:53.291Z,14.73
2023-05-09T19:46:20.280Z,14.76
2023-05-09T19:48:47.395Z,14.76
2023-05-09T19:51:15.381Z,14.94
2023-05-09T19:53:42.414Z,14.92
2023-05-09T19:56:09.840Z,14.88
2023-05-09T19:58:37.014Z,14.76
2023-05-09T20:01:07.238Z,14.90
2023-05-09T20:03:38.600Z,14.82
2023-05-09T20:06:07.648Z,14.83
2023-05-09T20:08:35.175Z,14.85
2023-05-09T20:11:03.158Z,14.79
2023-05-09T20:13:30.493Z,14.66
2023-05-09T20:15:58.958Z,14.60
2023-05-09T20:18:26.736Z,14.59
2023-05-09T20:20:54.712Z,14.60
2023-05-09T20:23:21.807Z,14.54
2023-05-09T20:25:48.808Z,14.64
2023-05-09T20:28:20.089Z,14.53
2023-05-09T20:30:47.200Z,14.50
2023-05-09T20:33:15.351Z,14.50
2023-05-09T20:35:43.506Z,14.41
2023-05-09T20:38:11.679Z,14.45
2023-05-09T20:40:38.679Z,14.42
2023-05-09T20:43:05.680Z,14.36
2023-05-09T20:45:32.807Z,14.29
2023-05-09T20:48:01.576Z,14.39
2023-05-09T20:50:28.619Z,14.33
2023-05-09T20:52:55.704Z,14.31
2023-05-09T20:55:22.833Z,14.16
2023-05-09T20:57:49.808Z,14.33
2023-05-09T21:00:17.264Z,14.25
2023-05-09T21:02:44.645Z,14.28
2023-05-09T21:05:11.692Z,14.18
2023-05-09T21:07:38.678Z,14.03
2023-05-09T21:10:06.141Z,14.02
2023-05-09T21:12:33.149Z,14.13
2023-05-09T21:15:00.221Z,14.09
2023-05-09T21:17:27.277Z,14.13
2023-05-09T21:19:54.368Z,13.86
2023-05-09T21:22:21.472Z,14.09
2023-05-09T21:24:48.499Z,14.12
2023-05-09T21:27:15.515Z,14.10
2023-05-09T21:29:42.483Z,14.04
2023-05-09T21:32:13.231Z,14.12
2023-05-09T21:34:40.291Z,14.13
2023-05-09T21:37:07.270Z,14.09
2023-05-09T21:39:34.385Z,14.00
2023-05-09T21:42:01.367Z,14.05
2023-05-09T21:44:28.344Z,14.07
2023-05-09T21:46:55.433Z,14.07
2023-05-09T21:49:22.460Z,14.02
2023-05-09T21:51:49.493Z,13.96
2023-05-09T21:54:16.616Z,14.06
2023-05-09T21:56:43.647Z,14.17
2023-05-09T21:59:10.833Z,14.11
2023-05-09T22:01:38.025Z,14.16
2023-05-09T22:04:05.691Z,14.06
2023-05-09T22:06:33.137Z,14.08
2023-05-09T22:09:00.131Z,14.06
2023-05-09T22:11:27.194Z,14.08
2023-05-09T22:13:55.211Z,14.05
2023-05-09T22:16:22.710Z,14.02
2023-05-09T22:18:49.778Z,13.93
2023-05-09T22:21:16.795Z,13.97
2023-05-09T22:23:43.859Z,14.03
2023-05-09T22:26:10.879Z,13.76
2023-05-09T22:28:37.879Z,13.93
2023-05-09T22:31:06.633Z,13.94
2023-05-09T22:33:34.399Z,13.97
2023-05-09T22:36:01.650Z,13.88
2023-05-09T22:38:28.699Z,13.86
2023-05-09T22:40:55.692Z,13.72
2023-05-09T22:43:24.172Z,13.51
2023-05-09T22:45:52.717Z,13.35
2023-05-09T22:48:19.747Z,13.25
2023-05-09T22:50:46.723Z,13.26
2023-05-09T22:53:13.846Z,13.29
2023-05-09T22:55:41.310Z,13.06
2023-05-09T22:58:08.341Z,13.17
2023-05-09T23:00:35.737Z,13.11
2023-05-09T23:03:05.668Z,13.11
2023-05-09T23:05:32.734Z,13.02
2023-05-09T23:07:59.759Z,12.88
2023-05-09T23:10:26.949Z,12.84
2023-05-09T23:12:53.956Z,12.80
2023-05-09T23:15:21.051Z,12.85
2023-05-09T23:17:48.089Z,12.91
2023-05-09T23:20:15.958Z,12.87
2023-05-09T23:22:43.163Z,12.91
2023-05-09T23:25:10.341Z,12.96
2023-05-09T23:27:40.366Z,12.87
2023-05-09T23:30:10.799Z,12.70
2023-05-09T23:32:38.066Z,12.96
2023-05-09T23:35:05.849Z,12.98
2023-05-09T23:37:34.278Z,12.91
2023-05-09T23:40:01.301Z,12.67
2023-05-09T23:42:28.292Z,12.99
2023-05-09T23:44:55.282Z,12.85
2023-05-09T23:47:22.268Z,12.95
2023-05-09T23:49:49.279Z,12.91
2023-05-09T23:52:16.458Z,12.92
2023-05-09T23:54:43.448Z,12.82
2023-05-09T23:57:10.425Z,12.82
2023-05-09T23:59:37.535Z,12.80
